Airfield :
LOGIN :

Register | Disclaimer

   EN    FR    IT 

 










Legend :    VFR   Marginal VFR   IFR   Intensive IFR   Very Intensive IFR
Visi :
Ceiling :
>= 8 km
>= 3000ft
5 to 8 km
1000 to 3000 ft
1500m to 5 km
500 to 1000 ft
800 to 1500m
200 to 500 ft
< 800m
< 200 ft
Symbols :   Thunderstorms  Fog  Heavy snow  Heavy precipitations  Wind > 20 kt
SIGMETs :     Misc.  Thunderstorms  Icing  Turbulence  Mountain Waves  Volcanic Ashes







- Airport Elevation : 238 ft
- IATA code : FAB
- Download approach charts


EGLF - Farnborough

CURRENT METAR :
  • 220950Z 25009KT CAVOK 02/00 Q1003

EXPIRED METARs :
  • 220920Z 26006KT CAVOK 01/00 Q1003
  • 220850Z 25007KT CAVOK 01/00 Q1003
  • 220820Z 25005KT 9999 FEW030 00/M01 Q1003
  • 220750Z 24006KT CAVOK M01/M01 Q1003
  • 220720Z 23006KT CAVOK M01/M02 Q1004

TAF TAF EGLF
Valid from the 22 at 09:00 until the 22 at 18:00 UTC


220754Z 2209/2218 27010KT 9999 FEW025
TEMPO 2213/2218 6000 -SHRA BKN010
PROB30
TEMPO 2213/2218 3000 SHRA -SHRASN BKN005
ATIS : +44 09063 800 400 (*282)
No reported NOTAMs for that airfield.



MET'MAP, your aeronautical weather chart ! - Copyright ORBIFLY December 2007 - Disclaimer

ORBIFLY MET'MAP TEAM :

Programming & Development : Alexandra Zaïnal
Concept & Development : Baudouin d'Aumeries
Co-Development & Prog : Marc-Olivier Méhu
Technical & hardware support : Manuel Goepfert

Contact : metmap@orbifly.com




SOURCES & CREDITS :

   NOAA